Time;durP1;ratioP1;P1;durP2;ratioP2;P2;SDS_P1;SDS_P2;PMS_P1;PMS_P2;Temp;Humidity;BMP_temperature;BMP_pressure;BME280_temperature;BME280_humidity;BME280_pressure;Samples;Min_cycle;Max_cycle;Signal;HPM_P1;HPM_P2
2022/07/10 00:02:19;;;;;;;1.50;1.50;;;23.90;66.60;;;;;;5067714;28;43964;-70
2022/07/10 00:04:48;;;;;;;1.37;1.37;;;23.90;66.70;;;;;;5069033;28;44201;-71
2022/07/10 00:07:16;;;;;;;1.33;1.33;;;23.70;66.80;;;;;;5068296;28;46962;-69
2022/07/10 00:09:44;;;;;;;1.50;1.50;;;23.50;67.00;;;;;;5069956;28;43733;-70
2022/07/10 00:12:12;;;;;;;1.50;1.50;;;23.40;67.40;;;;;;5069950;28;43359;-70
2022/07/10 00:14:41;;;;;;;1.40;1.40;;;23.20;67.80;;;;;;5070539;28;43386;-71
2022/07/10 00:17:09;;;;;;;1.63;1.63;;;23.10;68.20;;;;;;5069942;28;45055;-70
2022/07/10 00:19:39;;;;;;;1.37;1.37;;;23.00;68.50;;;;;;5070974;28;43999;-70
2022/07/10 00:22:07;;;;;;;1.50;1.50;;;22.90;68.80;;;;;;5070736;28;43812;-71
2022/07/10 00:24:35;;;;;;;1.23;1.23;;;22.80;69.00;;;;;;5071068;28;43944;-70
2022/07/10 00:27:03;;;;;;;1.40;1.40;;;22.80;69.30;;;;;;5071372;28;43914;-70
2022/07/10 00:29:31;;;;;;;1.40;1.40;;;22.70;69.40;;;;;;5069389;28;45976;-71
2022/07/10 00:31:59;;;;;;;1.47;1.40;;;22.70;69.50;;;;;;5070814;28;44047;-70
2022/07/10 00:34:27;;;;;;;1.30;1.30;;;22.70;69.70;;;;;;5071276;28;43396;-70
2022/07/10 00:36:56;;;;;;;1.27;1.27;;;22.70;69.80;;;;;;5070965;28;44210;-70
2022/07/10 00:39:24;;;;;;;1.50;1.50;;;22.60;69.80;;;;;;5070891;28;43951;-70
2022/07/10 00:41:52;;;;;;;1.33;1.33;;;22.60;69.80;;;;;;5070936;28;44002;-69
2022/07/10 00:44:20;;;;;;;1.20;1.20;;;22.60;69.90;;;;;;5070921;28;43803;-69
2022/07/10 00:46:48;;;;;;;1.57;1.57;;;22.50;69.80;;;;;;5070787;28;44103;-70
2022/07/10 00:49:16;;;;;;;1.50;1.50;;;22.60;70.00;;;;;;5070976;28;43958;-70
2022/07/10 00:51:44;;;;;;;1.40;1.40;;;22.60;70.30;;;;;;5070869;28;43843;-71
2022/07/10 00:54:14;;;;;;;1.30;1.30;;;22.60;70.90;;;;;;5070405;28;44033;-70
2022/07/10 00:56:42;;;;;;;1.33;1.33;;;22.70;71.00;;;;;;5070407;28;43992;-70
2022/07/10 00:59:10;;;;;;;1.43;1.43;;;22.80;70.50;;;;;;5069909;28;44040;-71
2022/07/10 01:01:38;;;;;;;1.40;1.40;;;22.90;70.00;;;;;;5069350;28;43953;-70
2022/07/10 01:04:06;;;;;;;1.40;1.40;;;23.10;69.60;;;;;;5068438;28;44028;-70
2022/07/10 01:06:33;;;;;;;1.40;1.40;;;23.20;69.00;;;;;;5068342;28;45038;-69
2022/07/10 01:09:01;;;;;;;1.40;1.40;;;23.40;68.70;;;;;;5068198;28;43767;-69
2022/07/10 01:11:31;;;;;;;1.40;1.40;;;23.50;68.20;;;;;;5068324;28;43983;-69
2022/07/10 01:13:59;;;;;;;1.30;1.30;;;23.60;67.80;;;;;;5068540;28;43466;-70
2022/07/10 01:16:27;;;;;;;1.30;1.30;;;23.70;67.50;;;;;;5068275;28;43762;-68
2022/07/10 01:18:55;;;;;;;1.20;1.20;;;23.70;67.10;;;;;;5068256;28;43956;-69
2022/07/10 01:21:28;;;;;;;1.30;1.30;;;23.70;67.20;;;;;;5068457;28;44046;-70
2022/07/10 01:23:56;;;;;;;1.40;1.40;;;23.60;67.40;;;;;;5061820;28;44074;-69
2022/07/10 01:26:24;;;;;;;1.40;1.40;;;23.50;67.50;;;;;;5061580;28;43900;-69
2022/07/10 01:28:52;;;;;;;1.13;1.13;;;23.30;67.80;;;;;;5061637;28;43333;-69
2022/07/10 01:31:20;;;;;;;1.30;1.30;;;23.20;68.20;;;;;;5059973;28;44006;-69
2022/07/10 01:33:49;;;;;;;1.27;1.27;;;23.00;69.10;;;;;;5061790;28;43947;-69
2022/07/10 01:36:17;;;;;;;1.17;1.17;;;22.90;68.70;;;;;;5061325;28;43908;-69
2022/07/10 01:38:46;;;;;;;1.27;1.27;;;22.90;69.00;;;;;;5061385;28;43416;-70
2022/07/10 01:41:14;;;;;;;1.10;1.10;;;22.80;69.30;;;;;;5067548;28;43469;-69
2022/07/10 01:43:42;;;;;;;1.20;1.20;;;22.70;69.40;;;;;;5068102;28;43936;-69
2022/07/10 01:46:11;;;;;;;1.30;1.30;;;22.70;69.60;;;;;;5067814;28;43928;-70
2022/07/10 01:48:39;;;;;;;1.23;1.23;;;22.70;69.70;;;;;;5067592;28;43824;-70
2022/07/10 01:51:08;;;;;;;1.30;1.30;;;22.70;69.80;;;;;;5067674;28;43950;-70
2022/07/10 01:53:36;;;;;;;1.10;1.10;;;22.60;70.70;;;;;;5067777;28;43585;-69
2022/07/10 01:56:07;;;;;;;1.30;1.30;;;22.60;70.90;;;;;;5067189;28;43902;-70
2022/07/10 01:58:35;;;;;;;1.23;1.23;;;22.70;70.80;;;;;;5066109;28;44842;-70
2022/07/10 02:01:04;;;;;;;1.20;1.20;;;22.80;70.40;;;;;;5067609;28;43935;-70
2022/07/10 02:06:17;;;;;;;1.10;1.10;;;23.00;69.60;;;;;;5067348;28;43833;-69
2022/07/10 02:08:45;;;;;;;1.10;1.10;;;23.20;69.10;;;;;;5065835;28;44782;-69
2022/07/10 02:11:15;;;;;;;1.10;1.10;;;23.40;68.70;;;;;;5067341;28;43866;-70
2022/07/10 02:13:43;;;;;;;1.20;1.20;;;23.50;68.20;;;;;;5067585;28;43906;-69
2022/07/10 02:16:11;;;;;;;1.10;1.10;;;23.60;67.90;;;;;;5067473;28;44381;-69
2022/07/10 02:18:40;;;;;;;1.00;1.00;;;23.70;67.40;;;;;;5067126;28;44021;-70
2022/07/10 02:21:08;;;;;;;1.10;1.10;;;23.80;67.00;;;;;;5065690;28;43994;-69
2022/07/10 02:23:39;;;;;;;1.20;1.20;;;23.80;67.00;;;;;;5067053;28;44281;-69
2022/07/10 02:26:06;;;;;;;1.23;1.23;;;23.70;67.20;;;;;;5065555;28;45853;-69
2022/07/10 02:28:36;;;;;;;1.07;1.07;;;23.50;67.40;;;;;;5066710;28;44118;-69
2022/07/10 02:31:04;;;;;;;1.00;1.00;;;23.40;67.60;;;;;;5067172;28;43978;-70
2022/07/10 02:33:32;;;;;;;1.10;1.10;;;23.20;68.00;;;;;;5067544;28;43902;-69
2022/07/10 02:36:00;;;;;;;1.10;1.10;;;23.10;68.30;;;;;;5066586;28;43967;-70
2022/07/10 02:38:28;;;;;;;1.30;1.30;;;23.00;68.60;;;;;;5066817;28;43367;-69
2022/07/10 02:40:56;;;;;;;1.10;1.10;;;22.90;68.90;;;;;;5066992;28;44030;-70
2022/07/10 02:43:24;;;;;;;1.20;1.20;;;22.80;69.10;;;;;;5067438;28;44010;-70
2022/07/10 02:45:54;;;;;;;1.00;1.00;;;22.80;69.30;;;;;;5067064;28;43911;-69
2022/07/10 02:48:22;;;;;;;1.10;1.10;;;22.70;69.50;;;;;;5066595;28;43316;-70
2022/07/10 02:50:50;;;;;;;1.10;1.10;;;22.70;69.60;;;;;;5066744;28;43938;-71
2022/07/10 02:53:18;;;;;;;1.10;1.10;;;22.70;69.80;;;;;;5066954;28;43960;-69
2022/07/10 02:55:46;;;;;;;1.10;1.10;;;22.70;69.80;;;;;;5066687;28;43838;-69
2022/07/10 02:58:15;;;;;;;1.10;1.10;;;22.60;69.80;;;;;;5066569;28;43975;-70
2022/07/10 03:00:43;;;;;;;1.10;1.10;;;22.60;69.90;;;;;;5066543;28;43996;-70
2022/07/10 03:03:12;;;;;;;1.00;1.00;;;22.60;70.00;;;;;;5066743;28;43354;-69
2022/07/10 03:05:40;;;;;;;1.30;1.30;;;22.60;70.50;;;;;;5066534;28;43863;-69
2022/07/10 03:08:08;;;;;;;1.00;1.00;;;22.60;70.90;;;;;;5066113;28;44015;-69
2022/07/10 03:10:36;;;;;;;1.10;1.10;;;22.60;70.90;;;;;;5066551;28;44023;-69
2022/07/10 03:13:04;;;;;;;1.10;1.10;;;22.70;70.70;;;;;;5067062;28;43889;-69
2022/07/10 03:15:32;;;;;;;1.00;1.00;;;22.80;70.30;;;;;;5066677;28;44674;-69
2022/07/10 03:18:00;;;;;;;1.03;1.03;;;23.00;69.90;;;;;;5066192;28;43840;-69
2022/07/10 03:20:30;;;;;;;1.50;1.40;;;23.10;69.40;;;;;;5066647;28;44023;-70
2022/07/10 03:22:58;;;;;;;1.53;1.50;;;23.30;68.80;;;;;;5066367;28;43601;-69
2022/07/10 03:25:26;;;;;;;2.10;1.90;;;23.40;68.30;;;;;;5066528;28;44759;-69
2022/07/10 03:27:54;;;;;;;3.27;2.30;;;23.50;67.90;;;;;;5066581;28;44275;-69
2022/07/10 03:30:22;;;;;;;2.90;2.57;;;23.60;67.40;;;;;;5066793;28;43991;-70
2022/07/10 03:32:49;;;;;;;4.17;2.67;;;23.70;67.20;;;;;;5066751;28;44059;-70
2022/07/10 03:35:17;;;;;;;3.53;2.53;;;23.80;67.00;;;;;;5066261;28;43906;-70
2022/07/10 03:37:47;;;;;;;3.10;2.73;;;23.90;66.80;;;;;;5068375;28;43877;-70
2022/07/10 03:40:15;;;;;;;3.57;2.60;;;23.80;66.80;;;;;;5068539;28;43328;-69
2022/07/10 03:42:43;;;;;;;5.60;3.13;;;23.70;67.30;;;;;;5070043;28;43960;-69
2022/07/10 03:45:11;;;;;;;3.53;3.07;;;23.50;67.40;;;;;;5068374;28;46375;-68
2022/07/10 03:47:39;;;;;;;3.90;3.20;;;23.40;67.80;;;;;;5069822;28;43998;-69
2022/07/10 03:50:08;;;;;;;4.57;3.10;;;23.20;68.00;;;;;;5070044;28;43859;-69
2022/07/10 03:52:36;;;;;;;6.27;3.30;;;23.10;68.30;;;;;;5070148;28;44010;-69
2022/07/10 03:55:06;;;;;;;5.53;3.67;;;23.00;68.60;;;;;;5069873;28;43787;-69
2022/07/10 04:00:21;;;;;;;6.90;4.10;;;22.80;69.80;;;;;;5069658;28;43903;-70
2022/07/10 04:02:49;;;;;;;5.50;3.60;;;22.80;69.30;;;;;;5069797;28;43523;-69
2022/07/10 04:05:17;;;;;;;6.33;4.03;;;22.70;69.40;;;;;;5069618;28;43933;-69
2022/07/10 04:07:45;;;;;;;7.47;4.50;;;22.70;69.60;;;;;;5069407;28;44007;-70
2022/07/10 04:10:15;;;;;;;7.03;4.10;;;22.70;69.60;;;;;;5068114;28;43914;-69
2022/07/10 04:12:43;;;;;;;6.33;3.90;;;22.60;69.60;;;;;;5069745;28;43939;-69
2022/07/10 04:15:11;;;;;;;5.70;4.20;;;22.60;69.70;;;;;;5069405;28;44041;-70
2022/07/10 04:17:39;;;;;;;6.33;4.60;;;22.60;69.80;;;;;;5069176;28;43860;-68
2022/07/10 04:20:08;;;;;;;5.43;4.07;;;22.60;69.80;;;;;;5069299;28;43888;-70
2022/07/10 04:22:36;;;;;;;8.30;4.60;;;22.60;70.00;;;;;;5068001;28;43484;-70
2022/07/10 04:25:05;;;;;;;6.30;4.20;;;22.60;70.70;;;;;;5069100;28;43908;-69
2022/07/10 04:27:34;;;;;;;6.00;4.90;;;22.60;70.90;;;;;;5067705;28;45816;-70
2022/07/10 04:30:02;;;;;;;8.03;5.03;;;22.70;70.80;;;;;;5068884;28;44038;-69
2022/07/10 04:32:30;;;;;;;7.17;4.97;;;22.80;70.40;;;;;;5068052;28;43915;-69
2022/07/10 04:34:58;;;;;;;5.40;4.30;;;22.90;70.00;;;;;;5069046;28;43897;-68
2022/07/10 04:37:26;;;;;;;6.07;4.60;;;23.10;69.50;;;;;;5069117;28;44086;-69
2022/07/10 04:39:54;;;;;;;8.17;4.80;;;23.20;69.60;;;;;;5069142;28;43940;-69
2022/07/10 04:42:26;;;;;;;5.37;4.63;;;23.40;68.50;;;;;;5069575;28;44021;-69
2022/07/10 04:44:56;;;;;;;5.13;4.27;;;23.50;68.00;;;;;;5067434;28;45023;-70
2022/07/10 04:47:24;;;;;;;8.70;4.83;;;23.60;67.60;;;;;;5068619;28;43915;-69
2022/07/10 04:49:52;;;;;;;7.10;4.60;;;23.70;67.30;;;;;;5068998;28;44469;-69
2022/07/10 04:52:20;;;;;;;7.97;5.23;;;23.80;67.10;;;;;;5069009;28;44020;-69
2022/07/10 04:54:48;;;;;;;9.00;5.47;;;23.90;66.80;;;;;;5068544;28;43970;-69
2022/07/10 04:57:15;;;;;;;7.43;5.20;;;23.80;66.70;;;;;;5068763;28;44116;-70
2022/07/10 04:59:43;;;;;;;7.87;5.30;;;23.70;67.10;;;;;;5069004;28;43960;-69
2022/07/10 05:02:13;;;;;;;5.53;4.77;;;23.50;67.40;;;;;;5068986;28;43960;-69
2022/07/10 05:04:41;;;;;;;5.30;4.37;;;23.40;67.70;;;;;;5068664;28;43954;-69
2022/07/10 05:07:09;;;;;;;6.63;4.60;;;23.30;68.00;;;;;;5068593;28;44084;-70
2022/07/10 05:09:37;;;;;;;5.40;4.20;;;23.10;68.20;;;;;;5068474;28;43380;-69
2022/07/10 05:12:06;;;;;;;7.07;4.57;;;23.00;69.30;;;;;;5068890;28;44017;-69
2022/07/10 05:14:34;;;;;;;5.00;4.57;;;22.90;68.80;;;;;;5068317;28;43936;-69
2022/07/10 05:17:02;;;;;;;5.23;4.10;;;22.80;69.00;;;;;;5068386;28;43895;-69
2022/07/10 05:19:32;;;;;;;4.87;4.23;;;22.80;69.30;;;;;;5068550;28;44006;-69
2022/07/10 05:22:00;;;;;;;4.77;4.20;;;22.70;69.40;;;;;;5068850;28;44032;-70
2022/07/10 05:24:28;;;;;;;4.30;4.00;;;22.70;69.50;;;;;;5068068;28;44255;-69
2022/07/10 05:26:56;;;;;;;4.40;4.00;;;22.60;69.50;;;;;;5068681;28;44043;-69
2022/07/10 05:29:24;;;;;;;5.57;4.30;;;22.60;69.60;;;;;;5068607;28;44047;-70
2022/07/10 05:31:52;;;;;;;5.80;4.30;;;22.70;69.80;;;;;;5068803;28;43803;-69
2022/07/10 05:34:20;;;;;;;5.03;4.60;;;22.60;69.80;;;;;;5068177;28;43889;-69
2022/07/10 05:36:49;;;;;;;4.57;4.07;;;22.60;69.80;;;;;;5068191;28;44018;-69
2022/07/10 05:39:17;;;;;;;4.77;4.30;;;22.60;70.20;;;;;;5067962;28;43877;-70
2022/07/10 05:41:45;;;;;;;5.27;4.37;;;22.60;70.90;;;;;;5068323;28;43873;-69
2022/07/10 05:44:13;;;;;;;4.33;4.03;;;22.60;70.90;;;;;;5067805;28;43988;-69
2022/07/10 05:46:41;;;;;;;5.00;4.50;;;22.70;70.70;;;;;;5066400;28;45020;-69
2022/07/10 05:49:09;;;;;;;4.17;3.87;;;22.80;70.30;;;;;;5066642;28;43990;-69
2022/07/10 05:51:37;;;;;;;5.80;4.30;;;22.90;69.70;;;;;;5068051;28;44019;-70
2022/07/10 05:54:13;;;;;;;4.63;4.20;;;23.10;69.20;;;;;;5067438;28;44864;-69
2022/07/10 05:56:41;;;;;;;4.60;3.97;;;23.30;68.60;;;;;;5067858;28;43298;-69
2022/07/10 05:59:09;;;;;;;4.40;4.00;;;23.40;68.20;;;;;;5065396;28;43937;-70
2022/07/10 06:01:37;;;;;;;5.80;4.20;;;23.50;67.80;;;;;;5068311;28;44011;-69
2022/07/10 06:04:05;;;;;;;4.23;3.87;;;23.60;67.40;;;;;;5067141;28;44808;-70
2022/07/10 06:06:33;;;;;;;4.60;4.23;;;23.70;67.10;;;;;;5067380;28;43931;-69
2022/07/10 06:09:01;;;;;;;4.10;3.80;;;23.80;66.80;;;;;;5067842;28;43906;-69
2022/07/10 06:11:30;;;;;;;3.93;3.60;;;23.80;66.40;;;;;;5068186;28;44003;-69
2022/07/10 06:13:58;;;;;;;4.87;4.13;;;23.80;66.50;;;;;;5067371;28;44481;-69
2022/07/10 06:16:26;;;;;;;4.17;3.87;;;23.70;66.90;;;;;;5067696;28;43987;-69
2022/07/10 06:18:54;;;;;;;4.40;4.10;;;23.50;67.20;;;;;;5068143;28;43467;-70
2022/07/10 06:21:22;;;;;;;3.90;3.60;;;23.40;67.60;;;;;;5068063;28;43948;-70
2022/07/10 06:23:51;;;;;;;4.03;3.83;;;23.20;67.80;;;;;;5067382;28;45119;-69
2022/07/10 06:26:19;;;;;;;3.77;3.50;;;23.10;68.20;;;;;;5067166;28;43934;-69
2022/07/10 06:28:48;;;;;;;3.40;3.10;;;23.00;68.60;;;;;;5067273;28;43818;-69
2022/07/10 06:31:16;;;;;;;3.90;3.70;;;22.90;68.80;;;;;;5067681;28;43952;-69
2022/07/10 06:33:44;;;;;;;3.80;3.50;;;22.80;69.10;;;;;;5066937;28;44736;-69
2022/07/10 06:36:13;;;;;;;3.23;3.10;;;22.70;69.20;;;;;;5067036;28;43984;-69
2022/07/10 06:38:41;;;;;;;3.50;3.30;;;22.70;69.40;;;;;;5067045;28;44082;-69
2022/07/10 06:41:11;;;;;;;3.03;2.93;;;22.70;69.50;;;;;;5060727;28;44005;-69
2022/07/10 06:43:39;;;;;;;3.70;3.50;;;22.70;69.60;;;;;;5060370;28;44001;-68
2022/07/10 06:46:08;;;;;;;3.20;3.10;;;22.70;69.70;;;;;;5060165;28;43969;-69
2022/07/10 06:48:39;;;;;;;3.30;3.17;;;22.60;69.70;;;;;;5060847;28;43978;-70
2022/07/10 06:51:08;;;;;;;3.10;2.90;;;22.60;69.70;;;;;;5061221;28;44059;-68
2022/07/10 06:53:43;;;;;;;3.07;2.93;;;22.60;69.80;;;;;;5066660;28;44122;-70
2022/07/10 06:56:11;;;;;;;3.27;3.07;;;22.60;70.50;;;;;;5067008;28;43953;-69
2022/07/10 06:58:39;;;;;;;3.47;3.33;;;22.60;69.90;;;;;;5066766;28;43938;-69
2022/07/10 07:01:09;;;;;;;3.00;2.80;;;22.50;69.80;;;;;;5067398;28;43980;-69
2022/07/10 07:03:37;;;;;;;3.20;3.03;;;22.50;70.70;;;;;;5066379;28;43790;-69
2022/07/10 07:06:06;;;;;;;3.37;3.17;;;22.60;70.90;;;;;;5066688;28;43963;-70
2022/07/10 07:08:36;;;;;;;3.50;3.20;;;22.70;70.70;;;;;;5066747;28;43959;-68
2022/07/10 07:11:05;;;;;;;3.30;3.10;;;22.80;70.10;;;;;;5072244;28;43884;-69
2022/07/10 07:13:33;;;;;;;3.47;3.27;;;22.90;69.40;;;;;;5073343;28;44043;-70
2022/07/10 07:16:05;;;;;;;3.00;2.90;;;23.10;69.00;;;;;;5073346;28;44026;-69
2022/07/10 07:18:37;;;;;;;3.20;3.00;;;23.20;68.30;;;;;;5073510;28;43978;-69
2022/07/10 07:23:51;;;;;;;3.00;2.90;;;23.50;67.50;;;;;;5073160;28;43721;-69
2022/07/10 07:26:19;;;;;;;3.17;3.07;;;23.60;67.20;;;;;;5073162;28;43938;-70
2022/07/10 07:28:47;;;;;;;2.93;2.73;;;23.60;66.80;;;;;;5073287;28;43954;-69
2022/07/10 07:31:17;;;;;;;2.80;2.60;;;23.60;66.90;;;;;;5073787;28;44408;-69
2022/07/10 07:33:47;;;;;;;3.00;2.90;;;23.50;67.30;;;;;;5073223;28;44031;-69
2022/07/10 07:36:15;;;;;;;2.70;2.60;;;23.30;67.40;;;;;;5066331;28;43961;-70
2022/07/10 07:38:43;;;;;;;2.60;2.50;;;23.20;67.70;;;;;;5066599;28;43421;-69
2022/07/10 07:41:11;;;;;;;2.63;2.53;;;23.10;68.10;;;;;;5066882;28;43447;-69
2022/07/10 07:43:39;;;;;;;2.57;2.47;;;23.00;68.40;;;;;;5066286;28;43929;-69
2022/07/10 07:46:07;;;;;;;2.20;2.10;;;22.90;68.70;;;;;;5057911;28;44907;-70
2022/07/10 07:48:35;;;;;;;2.83;2.63;;;22.80;68.90;;;;;;5066607;28;43905;-70
2022/07/10 07:51:05;;;;;;;2.60;2.50;;;22.70;69.10;;;;;;5067020;28;43748;-69
2022/07/10 07:53:33;;;;;;;2.90;2.80;;;22.70;69.20;;;;;;5072837;28;43970;-71
2022/07/10 07:56:01;;;;;;;2.53;2.43;;;22.60;69.30;;;;;;5071345;28;46005;-69
2022/07/10 07:58:29;;;;;;;3.00;2.80;;;22.60;69.40;;;;;;5073104;28;43968;-70
2022/07/10 08:00:58;;;;;;;2.57;2.47;;;22.60;69.50;;;;;;5073193;28;43978;-70
2022/07/10 08:03:26;;;;;;;2.67;2.57;;;22.50;69.60;;;;;;5072491;28;44796;-69
2022/07/10 08:06:15;;;;;;;2.43;2.33;;;22.50;69.60;;;;;;5071271;28;46163;-69
2022/07/10 08:08:44;;;;;;;2.50;2.40;;;22.50;69.70;;;;;;5073080;28;43862;-70
2022/07/10 08:11:12;;;;;;;2.30;2.20;;;22.50;70.60;;;;;;5073008;28;43947;-69
2022/07/10 08:13:40;;;;;;;2.40;2.30;;;22.50;70.80;;;;;;5072489;28;43929;-68
2022/07/10 08:16:08;;;;;;;2.50;2.40;;;22.60;70.80;;;;;;5072463;28;43932;-69
2022/07/10 08:18:36;;;;;;;2.13;2.13;;;22.70;70.40;;;;;;5072655;28;44279;-69
2022/07/10 08:21:05;;;;;;;2.43;2.23;;;22.80;69.90;;;;;;5072216;28;43989;-70
2022/07/10 08:23:35;;;;;;;2.50;2.40;;;22.90;69.30;;;;;;5068649;28;44006;-69
2022/07/10 08:26:03;;;;;;;2.37;2.27;;;23.00;68.20;;;;;;5069171;28;44058;-69
2022/07/10 08:28:31;;;;;;;2.27;2.20;;;23.20;68.00;;;;;;5069239;28;43949;-70
2022/07/10 08:30:59;;;;;;;2.40;2.30;;;23.30;67.50;;;;;;5069748;28;43954;-70
2022/07/10 08:33:27;;;;;;;2.20;2.10;;;23.40;66.30;;;;;;5069244;28;44845;-69
2022/07/10 08:35:58;;;;;;;2.27;2.17;;;23.50;65.90;;;;;;5067979;28;45251;-70
2022/07/10 08:38:48;;;;;;;2.10;2.00;;;23.60;66.30;;;;;;5069193;28;44019;-69
2022/07/10 08:41:16;;;;;;;2.20;2.10;;;23.60;64.90;;;;;;5069428;28;44055;-69
2022/07/10 08:43:43;;;;;;;2.17;2.07;;;23.70;64.80;;;;;;5068816;28;43998;-69
2022/07/10 08:46:12;;;;;;;1.90;1.90;;;23.60;65.80;;;;;;5068803;28;43989;-69
2022/07/10 08:48:41;;;;;;;1.67;1.67;;;23.50;66.20;;;;;;5068772;28;43404;-69
2022/07/10 08:51:09;;;;;;;1.87;1.87;;;23.30;66.60;;;;;;5069348;28;43958;-69
2022/07/10 08:53:37;;;;;;;2.10;2.10;;;23.20;67.00;;;;;;5068727;28;44854;-69
2022/07/10 08:56:07;;;;;;;1.93;1.93;;;23.10;67.40;;;;;;5068478;28;43324;-69
2022/07/10 08:58:35;;;;;;;2.00;2.00;;;22.90;67.70;;;;;;5068810;28;44350;-69
2022/07/10 09:01:04;;;;;;;2.00;2.00;;;22.80;68.00;;;;;;5069342;28;44021;-70
2022/07/10 09:03:32;;;;;;;1.87;1.77;;;22.70;68.20;;;;;;5067964;28;44776;-69
2022/07/10 09:06:00;;;;;;;2.00;1.90;;;22.70;68.50;;;;;;5068446;28;43978;-70
2022/07/10 09:08:31;;;;;;;1.83;1.83;;;22.60;68.60;;;;;;5068610;28;43992;-69
2022/07/10 09:11:15;;;;;;;1.87;1.87;;;22.60;68.90;;;;;;5068784;28;43933;-69
2022/07/10 09:13:50;;;;;;;1.60;1.60;;;22.50;69.00;;;;;;5068258;28;44677;-69
2022/07/10 09:16:25;;;;;;;1.90;1.80;;;22.50;69.10;;;;;;5068249;28;43393;-70
2022/07/10 09:18:53;;;;;;;1.83;1.83;;;22.50;69.20;;;;;;5068774;28;43958;-69
2022/07/10 09:21:21;;;;;;;1.60;1.60;;;22.50;69.30;;;;;;5068969;28;43987;-69
2022/07/10 09:23:56;;;;;;;1.70;1.70;;;22.40;69.20;;;;;;5068384;28;43937;-69
2022/07/10 09:26:26;;;;;;;1.40;1.40;;;22.50;69.40;;;;;;5062072;28;43953;-69
2022/07/10 09:29:05;;;;;;;1.67;1.60;;;22.50;69.40;;;;;;5067037;28;43979;-69
2022/07/10 09:31:48;;;;;;;1.80;1.80;;;22.40;69.40;;;;;;5068676;28;43408;-69
2022/07/10 09:34:16;;;;;;;1.70;1.70;;;22.40;70.10;;;;;;5066529;28;44103;-70
2022/07/10 09:36:44;;;;;;;1.90;1.90;;;22.40;70.50;;;;;;5068145;28;43954;-69
2022/07/10 09:39:12;;;;;;;1.73;1.63;;;22.50;70.50;;;;;;5068190;28;43816;-70
2022/07/10 09:41:42;;;;;;;1.60;1.60;;;22.60;70.10;;;;;;5068276;28;44104;-69
2022/07/10 09:44:11;;;;;;;1.50;1.50;;;22.80;69.50;;;;;;5067991;28;43885;-70
2022/07/10 09:46:40;;;;;;;1.70;1.60;;;22.90;68.70;;;;;;5067919;28;43325;-69
2022/07/10 09:49:09;;;;;;;1.50;1.50;;;23.10;68.10;;;;;;5068004;28;43989;-70
2022/07/10 09:51:38;;;;;;;1.33;1.33;;;23.20;67.10;;;;;;5068391;28;43372;-70
2022/07/10 09:54:15;;;;;;;1.47;1.47;;;23.30;66.50;;;;;;5067665;28;44000;-69
2022/07/10 09:56:46;;;;;;;1.43;1.43;;;23.40;65.70;;;;;;5067399;28;43959;-69
2022/07/10 09:59:15;;;;;;;1.40;1.40;;;23.50;65.30;;;;;;5067743;28;43938;-69
2022/07/10 10:01:45;;;;;;;1.40;1.40;;;23.50;65.10;;;;;;5068124;28;43920;-69
2022/07/10 10:04:13;;;;;;;1.50;1.50;;;23.50;65.70;;;;;;5059242;28;47270;-70
2022/07/10 10:06:41;;;;;;;1.50;1.50;;;23.30;66.10;;;;;;5060815;28;44002;-68
2022/07/10 10:09:12;;;;;;;1.80;1.80;;;23.20;66.50;;;;;;5061370;28;43916;-69
2022/07/10 10:11:42;;;;;;;1.40;1.40;;;23.00;66.70;;;;;;5068029;28;43937;-70
2022/07/10 10:14:11;;;;;;;1.50;1.50;;;22.90;67.20;;;;;;5067730;28;43941;-70
2022/07/10 10:16:39;;;;;;;1.43;1.43;;;22.90;67.60;;;;;;5067257;28;43937;-69
2022/07/10 10:21:54;;;;;;;1.40;1.40;;;22.70;68.20;;;;;;5068113;28;43437;-69
2022/07/10 10:24:22;;;;;;;1.10;1.10;;;22.70;68.50;;;;;;5067630;28;43801;-70
2022/07/10 10:26:50;;;;;;;1.30;1.30;;;22.60;68.50;;;;;;5067100;28;44140;-69
2022/07/10 10:29:19;;;;;;;1.27;1.27;;;22.60;68.60;;;;;;5067397;28;43994;-69
2022/07/10 10:31:47;;;;;;;1.30;1.30;;;22.50;68.70;;;;;;5067756;28;43889;-71
2022/07/10 10:34:17;;;;;;;1.40;1.40;;;22.50;68.90;;;;;;5067255;28;44856;-69
2022/07/10 10:36:45;;;;;;;1.30;1.30;;;22.50;69.10;;;;;;5067005;28;43892;-69
2022/07/10 10:39:16;;;;;;;1.40;1.30;;;22.50;69.80;;;;;;5066503;28;43893;-68
2022/07/10 10:41:47;;;;;;;1.57;1.50;;;22.50;69.70;;;;;;5067315;28;44045;-69
2022/07/10 10:44:28;;;;;;;1.37;1.37;;;22.60;69.10;;;;;;5066768;28;43949;-69
2022/07/10 10:47:09;;;;;;;1.30;1.30;;;22.70;68.50;;;;;;5067243;28;43965;-68
2022/07/10 10:49:53;;;;;;;1.30;1.30;;;22.80;68.00;;;;;;5067244;28;43970;-69
2022/07/10 10:52:22;;;;;;;1.27;1.27;;;23.00;67.60;;;;;;5067384;28;44010;-69
2022/07/10 10:55:08;;;;;;;1.20;1.20;;;23.10;67.00;;;;;;5067044;28;45161;-70
2022/07/10 10:57:39;;;;;;;1.20;1.20;;;23.30;66.80;;;;;;5066883;28;43943;-70
2022/07/10 11:00:10;;;;;;;1.00;1.00;;;23.40;66.60;;;;;;5060693;28;43908;-68
2022/07/10 11:02:39;;;;;;;1.20;1.20;;;23.50;66.40;;;;;;5060756;28;43471;-69
2022/07/10 11:05:43;;;;;;;1.23;1.23;;;23.50;66.30;;;;;;5066908;28;43623;-69
2022/07/10 11:08:11;;;;;;;1.20;1.20;;;23.60;66.20;;;;;;5066505;28;43961;-69
2022/07/10 11:10:40;;;;;;;1.10;1.10;;;23.50;67.10;;;;;;5066980;28;43363;-70
2022/07/10 11:13:15;;;;;;;1.30;1.30;;;23.40;66.70;;;;;;5067276;28;44025;-69
2022/07/10 11:15:46;;;;;;;1.17;1.17;;;23.20;66.70;;;;;;5060056;28;44922;-69
2022/07/10 11:18:15;;;;;;;0.93;0.93;;;23.10;67.00;;;;;;5060461;28;44599;-70
2022/07/10 11:20:46;;;;;;;1.30;1.30;;;23.00;67.30;;;;;;5066659;28;43885;-70
2022/07/10 11:23:30;;;;;;;1.10;1.10;;;22.90;68.40;;;;;;5065402;28;43972;-70
2022/07/10 11:26:07;;;;;;;1.00;1.00;;;22.80;68.00;;;;;;5066488;28;45008;-69
2022/07/10 11:28:50;;;;;;;1.13;1.13;;;22.70;68.20;;;;;;5066263;28;43999;-70
2022/07/10 11:31:20;;;;;;;1.30;1.30;;;22.70;68.50;;;;;;5066605;28;43395;-69
2022/07/10 11:33:49;;;;;;;1.10;1.10;;;22.60;68.50;;;;;;5060159;28;43836;-69
2022/07/10 11:36:18;;;;;;;1.03;1.03;;;22.60;68.50;;;;;;5059940;28;43919;-69
2022/07/10 11:38:46;;;;;;;1.20;1.20;;;22.50;68.20;;;;;;5060065;28;44058;-69
2022/07/10 11:41:15;;;;;;;0.90;0.90;;;22.50;67.90;;;;;;5066169;28;44043;-70
2022/07/10 11:43:48;;;;;;;1.20;1.20;;;22.50;67.80;;;;;;5066453;28;43889;-70
2022/07/10 11:46:15;;;;;;;1.17;1.17;;;22.50;67.90;;;;;;5064496;28;47086;-69
2022/07/10 11:48:45;;;;;;;1.27;1.27;;;22.50;67.80;;;;;;5066160;28;44025;-69
2022/07/10 11:51:31;;;;;;;1.37;1.20;;;22.40;64.80;;;;;;5064818;28;43431;-70
2022/07/10 11:54:00;;;;;;;1.70;1.23;;;22.40;63.70;;;;;;5066835;28;43932;-69
2022/07/10 11:56:29;;;;;;;2.87;1.80;;;22.40;62.40;;;;;;5066174;28;43917;-69
2022/07/10 11:58:58;;;;;;;4.60;1.47;;;22.40;60.90;;;;;;5069493;28;43931;-68
2022/07/10 12:01:26;;;;;;;1.70;1.27;;;22.30;56.20;;;;;;5068536;28;43452;-69
2022/07/10 12:03:57;;;;;;;1.93;1.30;;;22.30;53.50;;;;;;5069880;28;43849;-69
2022/07/10 12:06:25;;;;;;;2.03;1.40;;;22.40;52.10;;;;;;5069578;28;43634;-70
2022/07/10 12:08:53;;;;;;;1.57;1.47;;;22.50;53.30;;;;;;5069611;28;43947;-70
2022/07/10 12:11:22;;;;;;;2.23;1.30;;;22.60;52.10;;;;;;5069515;28;43983;-69
2022/07/10 12:13:51;;;;;;;2.20;1.50;;;22.70;52.40;;;;;;5069638;28;43451;-69
2022/07/10 12:16:19;;;;;;;1.93;1.40;;;22.80;52.10;;;;;;5069255;28;44014;-69
2022/07/10 12:18:47;;;;;;;1.50;1.30;;;22.90;51.60;;;;;;5069586;28;43994;-68
2022/07/10 12:21:17;;;;;;;1.23;1.23;;;23.00;53.30;;;;;;5069465;28;43357;-70
2022/07/10 12:23:46;;;;;;;1.57;1.47;;;23.10;55.00;;;;;;5069920;28;43971;-70
2022/07/10 12:26:14;;;;;;;2.17;1.30;;;23.20;56.20;;;;;;5068718;28;43860;-68
2022/07/10 12:28:53;;;;;;;1.43;1.13;;;23.10;56.60;;;;;;5067477;28;44803;-69
2022/07/10 12:31:22;;;;;;;1.60;1.50;;;23.00;56.70;;;;;;5062933;28;44031;-69
2022/07/10 12:33:54;;;;;;;1.30;1.20;;;22.80;57.20;;;;;;5063393;28;43758;-70
2022/07/10 12:36:24;;;;;;;2.00;1.90;;;22.80;58.00;;;;;;5068964;28;44004;-69
2022/07/10 12:38:57;;;;;;;1.30;1.30;;;22.60;58.40;;;;;;5068796;28;43970;-69
2022/07/10 12:41:25;;;;;;;1.43;1.33;;;22.50;59.00;;;;;;5069081;28;43939;-69
2022/07/10 12:43:54;;;;;;;1.10;1.10;;;22.50;59.50;;;;;;5069698;28;43944;-69
2022/07/10 12:46:23;;;;;;;1.23;1.23;;;22.50;59.90;;;;;;5068409;28;43787;-69
2022/07/10 12:49:05;;;;;;;3.73;1.53;;;22.40;60.00;;;;;;5069166;28;43975;-69
2022/07/10 12:51:35;;;;;;;1.30;1.20;;;22.40;60.60;;;;;;5068632;28;43979;-69
2022/07/10 12:54:33;;;;;;;1.70;1.60;;;22.40;61.00;;;;;;5069416;28;44648;-69
2022/07/10 12:57:02;;;;;;;1.23;1.20;;;22.30;61.20;;;;;;5067104;28;45345;-70
2022/07/10 12:59:30;;;;;;;1.63;1.50;;;22.30;60.70;;;;;;5068795;28;43980;-69
2022/07/10 13:01:58;;;;;;;1.20;1.20;;;22.30;62.20;;;;;;5068549;28;43911;-68
2022/07/10 13:04:27;;;;;;;1.60;1.53;;;22.30;63.50;;;;;;5069150;28;43814;-69
2022/07/10 13:06:56;;;;;;;1.30;1.20;;;22.40;63.70;;;;;;5068595;28;43989;-69
2022/07/10 13:09:25;;;;;;;1.30;1.20;;;22.50;63.60;;;;;;5067829;28;44006;-69
2022/07/10 13:11:54;;;;;;;1.50;1.40;;;22.60;63.30;;;;;;5069006;28;43388;-69